Illiopolis, Illinois
Current Conditions -  °F | °C
As of 1:14 PM on Thursday 27 Nov 2014 (Local Time) from KDEC Reporting Station
Light Snow Light Snow  
Wind Chill: 16°   Ceiling: 1300
Heat Index: 27°   Visibility: 4mi
Dew Point: 22°   Wind: 14mph
Humidity: 81%   Direction: 290°WNW
Pressure: 30.41"   Gusts: NA
Location:  39.85°N, 89.24°W
Report Text: KDEC 271914Z 29012KT 4SM -SN BKN013 OVC038 M03/M06 A3041 RMK AO2 SNE1855B03 P0000 T10281056
Loading
Personal Weather Stations






























Interactive Weather Map New forecast layout! Learn more

10-Day Weather Forecast

Advertisements
Track Severe Weather on mobile